createdAt,value
2023-01-19T00:04:09.530Z,79.78
2023-01-19T00:09:14.458Z,80.17
2023-01-19T00:14:17.941Z,80.41
2023-01-19T00:19:21.364Z,80.25
2023-01-19T00:24:26.167Z,80.57
2023-01-19T00:29:34.365Z,80.64
2023-01-19T00:34:39.609Z,81.33
2023-01-19T00:39:44.996Z,81.48
2023-01-19T00:44:48.711Z,82.08
2023-01-19T00:49:52.382Z,82.37
2023-01-19T00:54:57.465Z,81.95
2023-01-19T01:00:00.797Z,82.19
2023-01-19T01:05:04.200Z,82.29
2023-01-19T01:10:10.847Z,82.17
2023-01-19T01:15:15.785Z,81.65
2023-01-19T01:20:21.924Z,81.75
2023-01-19T01:25:28.010Z,82.05
2023-01-19T01:30:31.847Z,82.22
2023-01-19T01:35:35.610Z,81.95
2023-01-19T01:40:42.225Z,81.33
2023-01-19T01:45:46.395Z,81.37
2023-01-19T01:51:11.941Z,81.70
2023-01-19T01:56:24.315Z,81.06
2023-01-19T02:01:45.336Z,80.67
2023-01-19T02:07:06.745Z,80.89
2023-01-19T02:12:29.177Z,80.98
2023-01-19T02:17:33.059Z,80.78
2023-01-19T02:22:59.982Z,80.76
2023-01-19T02:28:05.828Z,80.20
2023-01-19T02:33:09.697Z,80.31
2023-01-19T02:38:14.709Z,80.06
2023-01-19T02:43:20.652Z,80.20
2023-01-19T02:48:24.043Z,80.07
2023-01-19T02:53:53.662Z,80.08
2023-01-19T02:59:07.743Z,80.19
2023-01-19T03:04:19.670Z,80.36
2023-01-19T03:09:29.942Z,80.09
2023-01-19T03:14:40.160Z,79.91
2023-01-19T03:19:47.834Z,79.94
2023-01-19T03:24:54.743Z,80.31
2023-01-19T03:30:02.847Z,80.24
2023-01-19T03:35:11.951Z,80.28
2023-01-19T03:40:15.743Z,79.94
2023-01-19T03:45:21.847Z,80.36
2023-01-19T03:50:27.770Z,80.59
2023-01-19T03:55:31.473Z,80.56
2023-01-19T04:00:37.005Z,80.47
2023-01-19T04:05:40.568Z,80.16
2023-01-19T04:10:44.217Z,80.42
2023-01-19T04:15:49.362Z,79.89
2023-01-19T04:20:53.123Z,79.93
2023-01-19T04:25:59.015Z,79.79
2023-01-19T04:31:04.661Z,79.89
2023-01-19T04:36:08.592Z,79.85
2023-01-19T04:41:11.995Z,80.01
2023-01-19T04:46:17.185Z,80.36
2023-01-19T04:51:20.577Z,80.19
2023-01-19T04:56:24.288Z,80.01
2023-01-19T05:01:29.502Z,79.98
2023-01-19T05:06:33.050Z,80.02
2023-01-19T05:11:36.493Z,79.98
2023-01-19T05:16:41.303Z,80.06
2023-01-19T05:21:44.709Z,80.36
2023-01-19T05:26:48.281Z,80.35
2023-01-19T05:31:53.458Z,79.77
2023-01-19T05:36:56.943Z,80.18
2023-01-19T05:42:00.643Z,79.97
2023-01-19T05:47:05.497Z,79.86
2023-01-19T05:52:09.022Z,79.81
2023-01-19T05:57:12.721Z,79.97
2023-01-19T06:02:17.527Z,79.54
2023-01-19T06:07:20.904Z,79.33
2023-01-19T06:12:24.597Z,79.79
2023-01-19T06:17:29.455Z,79.53
2023-01-19T06:22:32.843Z,79.89
2023-01-19T06:27:36.502Z,79.45
2023-01-19T06:32:41.298Z,79.51
2023-01-19T06:37:44.696Z,79.15
2023-01-19T06:42:50.029Z,78.50
2023-01-19T06:47:55.178Z,78.76
2023-01-19T06:52:58.902Z,78.21
2023-01-19T06:58:02.863Z,77.96
2023-01-19T07:03:09.567Z,77.74
2023-01-19T07:08:13.090Z,77.02
2023-01-19T07:13:16.817Z,77.25
2023-01-19T07:18:21.891Z,76.85
2023-01-19T07:23:25.699Z,76.34
2023-01-19T07:28:29.302Z,75.72
2023-01-19T07:33:34.097Z,75.86
2023-01-19T07:38:37.565Z,75.22
2023-01-19T07:43:41.027Z,75.54
2023-01-19T07:48:47.468Z,75.32
2023-01-19T07:53:52.126Z,74.43
2023-01-19T07:58:55.499Z,74.77
2023-01-19T08:04:00.591Z,74.48
2023-01-19T08:09:05.779Z,74.08
2023-01-19T08:14:09.542Z,73.45
2023-01-19T08:19:14.387Z,73.00
2023-01-19T08:24:21.474Z,72.03
2023-01-19T08:29:25.137Z,72.06
2023-01-19T08:34:31.047Z,71.07
2023-01-19T08:39:34.805Z,70.12
2023-01-19T08:44:46.717Z,70.66
2023-01-19T08:49:57.985Z,69.71
2023-01-19T08:55:01.680Z,69.33
2023-01-19T09:00:09.339Z,68.99
2023-01-19T09:05:14.648Z,68.16
2023-01-19T09:10:18.729Z,68.19
2023-01-19T09:15:22.123Z,67.00
2023-01-19T09:20:27.278Z,65.87
2023-01-19T09:25:30.665Z,65.90
2023-01-19T09:30:36.739Z,67.45
2023-01-19T09:35:42.708Z,67.76
2023-01-19T09:40:49.693Z,68.63
2023-01-19T09:45:57.068Z,65.24
2023-01-19T09:51:06.081Z,64.67
2023-01-19T09:56:14.519Z,64.46
2023-01-19T10:01:28.728Z,63.85
2023-01-19T10:06:33.755Z,63.77
2023-01-19T10:11:52.738Z,63.00
2023-01-19T10:17:05.569Z,63.91
2023-01-19T10:22:22.115Z,64.28
2023-01-19T10:27:30.612Z,64.87
2023-01-19T10:32:36.929Z,64.40
2023-01-19T10:37:42.164Z,64.54
2023-01-19T10:42:45.559Z,65.61
2023-01-19T10:47:50.225Z,65.87
2023-01-19T10:52:57.590Z,66.28
2023-01-19T10:58:01.077Z,65.80
2023-01-19T11:03:05.988Z,66.18
2023-01-19T11:08:24.500Z,65.53
2023-01-19T11:13:28.142Z,65.41
2023-01-19T11:18:34.318Z,64.97
2023-01-19T11:23:43.236Z,64.43
2023-01-19T11:28:51.475Z,63.09
2023-01-19T11:33:57.026Z,61.57
2023-01-19T11:39:21.841Z,61.91
2023-01-19T11:44:30.041Z,61.46
2023-01-19T11:49:43.584Z,61.86
2023-01-19T11:54:56.194Z,61.48
2023-01-19T12:00:03.648Z,60.88
2023-01-19T12:05:16.377Z,61.75
2023-01-19T12:10:27.135Z,62.08
2023-01-19T12:15:36.243Z,62.33
2023-01-19T12:20:44.525Z,61.71
2023-01-19T12:26:00.272Z,61.60
2023-01-19T12:31:05.150Z,62.33
2023-01-19T12:36:14.276Z,61.56
2023-01-19T12:41:27.027Z,61.75
2023-01-19T12:46:32.229Z,61.55
2023-01-19T12:51:35.720Z,61.20
2023-01-19T12:56:40.616Z,61.38
2023-01-19T13:01:44.371Z,61.97
2023-01-19T13:07:18.023Z,63.01
2023-01-19T13:12:25.483Z,62.37
2023-01-19T13:17:34.595Z,62.12
2023-01-19T13:23:20.044Z,61.21
2023-01-19T13:28:33.253Z,61.38
2023-01-19T13:33:55.960Z,61.94
2023-01-19T13:39:02.163Z,61.11
2023-01-19T13:44:14.283Z,61.17
2023-01-19T13:49:22.462Z,60.83
2023-01-19T13:54:27.151Z,62.05
2023-01-19T13:59:32.239Z,62.31
2023-01-19T14:04:35.615Z,62.19
2023-01-19T14:09:39.956Z,62.13
2023-01-19T14:14:46.841Z,61.67
2023-01-19T14:19:51.062Z,61.92
2023-01-19T14:24:54.739Z,62.10
2023-01-19T14:30:22.190Z,62.12
2023-01-19T14:35:26.861Z,61.79
2023-01-19T14:40:31.789Z,61.89
2023-01-19T14:45:39.393Z,62.28
2023-01-19T14:50:54.143Z,62.69
2023-01-19T14:56:04.585Z,62.87
2023-01-19T15:01:10.583Z,63.00
2023-01-19T15:06:16.637Z,63.19
2023-01-19T15:11:24.149Z,63.13
2023-01-19T15:16:30.947Z,63.14
2023-01-19T15:21:34.396Z,63.24
2023-01-19T15:26:39.477Z,62.72
2023-01-19T15:31:44.711Z,63.22
2023-01-19T15:36:48.163Z,63.52
2023-01-19T15:41:51.714Z,62.84
2023-01-19T15:46:57.458Z,62.79
2023-01-19T15:52:00.928Z,62.68
2023-01-19T15:57:04.529Z,62.31
2023-01-19T16:02:10.821Z,62.25
2023-01-19T16:07:14.405Z,62.10
2023-01-19T16:12:18.162Z,61.58
2023-01-19T16:17:22.990Z,61.63
2023-01-19T16:22:26.427Z,61.74
2023-01-19T16:27:30.349Z,61.52
2023-01-19T16:32:36.597Z,61.41
2023-01-19T16:37:40.363Z,61.84
2023-01-19T16:42:43.767Z,62.29
2023-01-19T16:47:50.723Z,61.93
2023-01-19T16:52:58.239Z,62.43
2023-01-19T16:58:01.945Z,63.22
2023-01-19T17:03:06.820Z,63.28
2023-01-19T17:08:10.809Z,62.96
2023-01-19T17:13:14.340Z,63.40
2023-01-19T17:18:19.499Z,63.80
2023-01-19T17:23:22.905Z,64.21
2023-01-19T17:28:26.829Z,64.61
2023-01-19T17:33:31.658Z,64.68
2023-01-19T17:38:35.433Z,65.39
2023-01-19T17:43:39.041Z,64.88
2023-01-19T17:48:44.080Z,64.45
2023-01-19T17:53:48.118Z,64.77
2023-01-19T17:58:52.361Z,64.89
2023-01-19T18:03:57.563Z,64.86
2023-01-19T18:09:01.277Z,65.35
2023-01-19T18:14:06.095Z,65.14
2023-01-19T18:19:11.461Z,65.33
2023-01-19T18:24:15.462Z,65.85
2023-01-19T18:29:26.565Z,65.91
2023-01-19T18:34:31.509Z,65.67
2023-01-19T18:39:35.613Z,66.25
2023-01-19T18:44:39.081Z,66.43
2023-01-19T18:49:44.443Z,66.38
2023-01-19T18:54:49.392Z,66.24
2023-01-19T18:59:53.677Z,66.44
2023-01-19T19:04:58.733Z,66.71
2023-01-19T19:10:02.282Z,67.38
2023-01-19T19:15:09.439Z,67.17
2023-01-19T19:20:15.288Z,67.44
2023-01-19T19:25:20.114Z,67.41
2023-01-19T19:30:23.789Z,67.07
2023-01-19T19:35:29.364Z,67.54
2023-01-19T19:40:32.832Z,67.68
2023-01-19T19:45:36.606Z,67.89
2023-01-19T19:50:41.536Z,68.09
2023-01-19T19:55:45.386Z,68.54
2023-01-19T20:00:48.926Z,68.88
2023-01-19T20:05:54.113Z,68.12
2023-01-19T20:11:06.257Z,67.63
2023-01-19T20:16:13.957Z,67.36
2023-01-19T20:21:20.736Z,67.13
2023-01-19T20:26:26.768Z,67.66
2023-01-19T20:31:31.868Z,67.06
2023-01-19T20:36:36.878Z,66.95
2023-01-19T20:41:45.116Z,67.54
2023-01-19T20:46:48.598Z,68.22
2023-01-19T20:51:54.202Z,68.59
2023-01-19T20:56:59.845Z,68.84
2023-01-19T21:02:03.321Z,69.09
2023-01-19T21:07:09.119Z,68.90
2023-01-19T21:12:13.454Z,68.96
2023-01-19T21:17:16.880Z,69.34
2023-01-19T21:22:21.820Z,69.28
2023-01-19T21:27:25.525Z,69.61
2023-01-19T21:32:29.442Z,69.67
2023-01-19T21:37:34.308Z,69.53
2023-01-19T21:42:37.774Z,70.11
2023-01-19T21:47:41.429Z,70.19
2023-01-19T21:52:47.009Z,70.17
2023-01-19T21:57:52.896Z,70.28
2023-01-19T22:03:03.753Z,70.24
2023-01-19T22:08:09.691Z,70.13
2023-01-19T22:13:13.259Z,70.19
2023-01-19T22:18:16.698Z,70.03
2023-01-19T22:23:21.504Z,70.26
2023-01-19T22:28:24.977Z,70.16
2023-01-19T22:33:30.128Z,70.04
2023-01-19T22:38:34.944Z,69.93
2023-01-19T22:43:38.699Z,69.98
2023-01-19T22:48:42.362Z,70.19
2023-01-19T22:53:47.607Z,69.58
2023-01-19T22:58:51.679Z,69.63
2023-01-19T23:03:55.673Z,69.46
2023-01-19T23:09:02.017Z,69.20
2023-01-19T23:14:07.077Z,68.94
2023-01-19T23:19:13.868Z,69.22
2023-01-19T23:24:19.020Z,69.02
2023-01-19T23:29:22.395Z,69.17
2023-01-19T23:34:25.790Z,69.57
2023-01-19T23:39:30.993Z,69.20
2023-01-19T23:44:34.620Z,69.31
2023-01-19T23:49:39.727Z,68.84
2023-01-19T23:54:45.078Z,68.98
2023-01-19T23:59:48.536Z,69.31
